Time;durP1;ratioP1;P1;durP2;ratioP2;P2;SDS_P1;SDS_P2;PMS_P1;PMS_P2;Temp;Humidity;BMP_temperature;BMP_pressure;BME280_temperature;BME280_humidity;BME280_pressure;Samples;Min_cycle;Max_cycle;Signal;HPM_P1;HPM_P2
2021/08/22 00:01:01;;;;;;;31.27;28.03;;;17.70;58.00;;;;;;4128937;28;20113;-52
2021/08/22 00:03:03;;;;;;;31.48;28.08;;;17.70;57.70;;;;;;4133300;28;20022;-49
2021/08/22 00:05:05;;;;;;;31.25;27.85;;;17.70;58.10;;;;;;4113952;28;20388;-54
2021/08/22 00:07:08;;;;;;;31.37;28.17;;;17.70;57.90;;;;;;4130833;28;20112;-54
2021/08/22 00:09:10;;;;;;;29.70;26.60;;;17.70;58.10;;;;;;4129703;28;20025;-58
2021/08/22 00:11:12;;;;;;;30.08;27.02;;;17.70;58.00;;;;;;4136395;28;20046;-54
2021/08/22 00:13:14;;;;;;;29.77;26.40;;;17.70;58.00;;;;;;4135223;28;20129;-52
2021/08/22 00:15:16;;;;;;;28.35;25.27;;;17.70;58.40;;;;;;4136631;28;20450;-53
2021/08/22 00:17:19;;;;;;;28.98;24.52;;;17.70;58.50;;;;;;4136685;28;20105;-52
2021/08/22 00:19:21;;;;;;;30.85;25.58;;;17.70;58.90;;;;;;4139993;28;20115;-45
2021/08/22 00:21:23;;;;;;;27.27;24.50;;;17.70;59.20;;;;;;4132738;28;20029;-45
2021/08/22 00:23:25;;;;;;;27.17;24.25;;;17.70;59.20;;;;;;4133885;28;20112;-47
2021/08/22 00:25:27;;;;;;;25.25;22.67;;;17.80;59.30;;;;;;4132309;28;20100;-48
2021/08/22 00:27:29;;;;;;;26.50;23.70;;;17.80;59.20;;;;;;4133699;28;20033;-47
2021/08/22 00:29:31;;;;;;;25.90;23.20;;;17.80;59.10;;;;;;4135207;28;20022;-47
2021/08/22 00:31:34;;;;;;;25.88;22.42;;;17.80;59.50;;;;;;4131213;28;20116;-53
2021/08/22 00:33:36;;;;;;;25.17;22.10;;;17.80;59.10;;;;;;4138311;28;20026;-55
2021/08/22 00:35:38;;;;;;;24.40;22.02;;;17.80;59.70;;;;;;4117756;28;20401;-50
2021/08/22 00:37:41;;;;;;;25.08;21.17;;;17.80;60.10;;;;;;4129571;28;21012;-51
2021/08/22 00:39:43;;;;;;;21.95;19.48;;;17.90;60.40;;;;;;4133797;28;20030;-53
2021/08/22 00:41:45;;;;;;;23.30;20.05;;;17.90;60.30;;;;;;4134745;28;20072;-47
2021/08/22 00:43:48;;;;;;;22.83;20.40;;;17.80;60.60;;;;;;4140390;28;20352;-45
2021/08/22 00:45:50;;;;;;;24.20;20.13;;;17.90;60.70;;;;;;4139493;28;20026;-48
2021/08/22 00:47:52;;;;;;;21.00;18.90;;;17.90;60.80;;;;;;4138634;28;20076;-51
2021/08/22 00:49:54;;;;;;;20.38;18.35;;;17.90;60.80;;;;;;4139469;28;20022;-46
2021/08/22 00:51:57;;;;;;;18.63;16.65;;;17.90;60.90;;;;;;4138075;28;20044;-47
2021/08/22 00:53:59;;;;;;;20.92;17.35;;;17.90;60.60;;;;;;4136480;28;20030;-44
2021/08/22 00:56:04;;;;;;;20.58;17.15;;;17.90;60.60;;;;;;4132648;28;20120;-51
2021/08/22 00:58:06;;;;;;;18.90;16.92;;;18.00;60.90;;;;;;4133928;28;20447;-46
2021/08/22 01:00:14;;;;;;;17.45;15.65;;;18.00;60.50;;;;;;4132601;28;20076;-45
2021/08/22 01:02:35;;;;;;;20.17;16.08;;;18.00;60.30;;;;;;4134576;28;20065;-50
2021/08/22 01:04:55;;;;;;;15.57;13.80;;;18.10;60.10;;;;;;4139281;28;20053;-48
2021/08/22 01:07:11;;;;;;;16.02;13.57;;;18.10;59.20;;;;;;4135040;28;20045;-45
2021/08/22 01:09:42;;;;;;;14.35;11.82;;;18.10;58.80;;;;;;4136747;28;20144;-48
2021/08/22 01:11:45;;;;;;;13.27;10.73;;;18.10;58.30;;;;;;4128066;28;20133;-49
2021/08/22 01:14:04;;;;;;;11.20;9.75;;;18.20;57.70;;;;;;4135953;28;20443;-51
2021/08/22 01:16:09;;;;;;;10.80;9.70;;;18.20;57.50;;;;;;4136220;28;20038;-47
2021/08/22 01:18:18;;;;;;;10.98;9.25;;;18.20;57.90;;;;;;4139766;28;20030;-48
2021/08/22 01:20:37;;;;;;;16.40;10.30;;;18.20;57.30;;;;;;4134130;28;20064;-49
2021/08/22 01:22:41;;;;;;;9.90;8.85;;;18.20;57.40;;;;;;4138013;28;20034;-53
2021/08/22 01:24:44;;;;;;;10.20;9.15;;;18.20;57.00;;;;;;4130510;28;20490;-50
2021/08/22 01:26:47;;;;;;;12.38;8.90;;;18.30;57.00;;;;;;4136434;28;20152;-53
2021/08/22 01:28:50;;;;;;;9.70;8.75;;;18.30;56.80;;;;;;4140644;28;20037;-53
2021/08/22 01:30:58;;;;;;;9.43;8.43;;;18.30;56.60;;;;;;4127220;28;20362;-49
2021/08/22 01:33:00;;;;;;;9.85;7.75;;;18.30;56.60;;;;;;4131734;28;20030;-49
2021/08/22 01:35:04;;;;;;;9.75;8.20;;;18.40;56.30;;;;;;4133448;28;20026;-55
2021/08/22 01:37:06;;;;;;;8.77;7.60;;;18.40;56.50;;;;;;4132423;28;20117;-52
2021/08/22 01:39:10;;;;;;;9.73;8.02;;;18.40;56.50;;;;;;4126556;28;20046;-51
2021/08/22 01:41:12;;;;;;;9.18;7.47;;;18.40;56.50;;;;;;4138143;28;20467;-56
2021/08/22 01:43:15;;;;;;;10.38;8.23;;;18.40;56.40;;;;;;4135398;28;20037;-55
2021/08/22 01:45:20;;;;;;;10.10;7.75;;;18.40;56.30;;;;;;4137569;28;20088;-56
2021/08/22 01:47:23;;;;;;;10.32;8.23;;;18.50;56.30;;;;;;4132528;28;21213;-56
2021/08/22 01:49:26;;;;;;;11.95;8.88;;;18.50;56.20;;;;;;4139703;28;20030;-54
2021/08/22 01:51:32;;;;;;;11.43;8.50;;;18.50;56.20;;;;;;4136691;28;20042;-57
2021/08/22 01:53:35;;;;;;;12.40;9.02;;;18.60;56.20;;;;;;4135297;28;20029;-53
2021/08/22 01:55:37;;;;;;;;;;;18.60;56.00;;;;;;4133596;28;20026;-62
2021/08/22 01:57:44;;;;;;;10.63;8.73;;;18.60;56.40;;;;;;4131260;28;19921;-53
2021/08/22 01:59:46;;;;;;;12.23;8.40;;;18.70;56.00;;;;;;4130960;28;20127;-58
2021/08/22 02:01:48;;;;;;;9.70;8.63;;;18.70;56.40;;;;;;4135965;28;20873;-52
2021/08/22 02:04:03;;;;;;;13.98;8.82;;;18.80;56.60;;;;;;4136821;28;20113;-55
2021/08/22 02:06:09;;;;;;;20.30;7.97;;;;;;;;;;4118130;28;20499;-59
2021/08/22 02:08:15;;;;;;;9.15;7.93;;;;;;;;;;4130361;28;20080;-57
2021/08/22 02:10:24;;;;;;;10.05;8.38;;;;;;;;;;4118424;28;20512;-59
2021/08/22 02:12:26;;;;;;;11.27;8.48;;;18.90;56.70;;;;;;4121033;28;20030;-60
2021/08/22 02:14:32;;;;;;;9.48;8.30;;;19.10;56.00;;;;;;4121373;28;20065;-58
2021/08/22 02:16:36;;;;;;;10.30;8.15;;;19.10;56.30;;;;;;4119703;28;20115;-59
2021/08/22 02:18:39;;;;;;;10.65;9.18;;;19.20;56.50;;;;;;4118251;28;20125;-56
2021/08/22 02:20:41;;;;;;;;;;;19.30;56.50;;;;;;4115520;28;20114;-58
2021/08/22 02:22:46;;;;;;;12.23;9.52;;;19.30;56.10;;;;;;4124240;28;19976;-58
2021/08/22 02:24:48;;;;;;;10.18;8.73;;;19.30;55.70;;;;;;4119340;28;20018;-56
2021/08/22 02:26:51;;;;;;;10.65;9.30;;;19.40;55.50;;;;;;4118028;28;20100;-53
2021/08/22 02:29:00;;;;;;;13.30;10.23;;;19.40;55.30;;;;;;4114315;28;20034;-59
2021/08/22 02:31:02;;;;;;;13.80;10.63;;;19.40;55.10;;;;;;4113735;28;20109;-57
2021/08/22 02:33:06;;;;;;;13.60;9.85;;;19.50;54.90;;;;;;4117940;28;20093;-58
2021/08/22 02:35:09;;;;;;;12.25;10.32;;;19.50;55.30;;;;;;4119524;28;20042;-56
2021/08/22 02:37:11;;;;;;;12.73;10.18;;;19.50;55.40;;;;;;4120473;28;20038;-57
2021/08/22 02:39:13;;;;;;;11.65;9.38;;;19.60;55.00;;;;;;4121383;28;20336;-54
2021/08/22 02:41:15;;;;;;;11.35;9.88;;;19.70;54.60;;;;;;4123741;28;20096;-55
2021/08/22 02:43:17;;;;;;;12.10;8.93;;;19.70;54.30;;;;;;4118002;28;20069;-54
2021/08/22 02:45:19;;;;;;;11.50;9.40;;;19.70;54.20;;;;;;4123677;28;20038;-58
2021/08/22 02:47:22;;;;;;;12.02;8.93;;;19.80;54.00;;;;;;4109717;28;20153;-59
2021/08/22 02:49:24;;;;;;;12.65;9.40;;;19.80;53.90;;;;;;4114647;28;20034;-59
2021/08/22 02:51:26;;;;;;;11.20;8.60;;;19.80;53.80;;;;;;4111071;28;20041;-59
2021/08/22 02:53:28;;;;;;;11.25;8.48;;;19.80;53.90;;;;;;4125755;28;20443;-58
2021/08/22 02:55:30;;;;;;;10.95;7.78;;;19.80;53.90;;;;;;4121551;28;20068;-59
2021/08/22 02:57:32;;;;;;;10.93;7.63;;;19.90;54.00;;;;;;4116380;28;20026;-59
2021/08/22 02:59:34;;;;;;;9.80;8.02;;;19.90;53.90;;;;;;4120906;28;20134;-58
2021/08/22 03:01:36;;;;;;;8.15;6.93;;;19.90;53.90;;;;;;4125643;28;20030;-59
2021/08/22 03:03:39;;;;;;;8.65;7.10;;;19.90;53.90;;;;;;4127273;28;20023;-59
2021/08/22 03:05:41;;;;;;;10.30;8.13;;;20.00;53.80;;;;;;4124187;28;20058;-58
2021/08/22 03:07:43;;;;;;;9.88;7.32;;;20.00;53.70;;;;;;4103474;28;20039;-59
2021/08/22 03:09:46;;;;;;;8.60;7.03;;;20.00;53.60;;;;;;4117111;28;20033;-55
2021/08/22 03:11:48;;;;;;;8.98;6.95;;;20.10;53.50;;;;;;4135086;28;20072;-58
2021/08/22 03:13:50;;;;;;;8.30;6.53;;;20.10;53.40;;;;;;4136286;28;20180;-58
2021/08/22 03:15:52;;;;;;;7.90;6.70;;;20.20;53.40;;;;;;4130085;28;20060;-58
2021/08/22 03:17:54;;;;;;;7.80;6.43;;;20.20;53.30;;;;;;4132046;28;20022;-58
2021/08/22 03:19:56;;;;;;;7.43;5.50;;;20.20;53.20;;;;;;4135317;28;20415;-58
2021/08/22 03:21:58;;;;;;;7.82;5.82;;;20.30;52.80;;;;;;4137162;28;20227;-58
2021/08/22 03:24:01;;;;;;;7.07;5.10;;;20.30;52.60;;;;;;4133635;28;20026;-58
2021/08/22 03:26:03;;;;;;;6.40;3.95;;;20.30;52.20;;;;;;4134666;28;20113;-58
2021/08/22 03:28:05;;;;;;;7.78;4.80;;;20.40;52.00;;;;;;4109568;28;20489;-58
2021/08/22 03:30:08;;;;;;;6.63;4.15;;;20.40;51.60;;;;;;4126311;28;20050;-58
2021/08/22 03:32:10;;;;;;;;;;;20.40;51.30;;;;;;4133236;28;20065;-59
2021/08/22 03:34:12;;;;;;;6.07;3.85;;;20.50;51.10;;;;;;4133596;28;20035;-58
2021/08/22 03:36:14;;;;;;;7.47;4.15;;;20.60;50.60;;;;;;4132016;28;20083;-57
2021/08/22 03:38:17;;;;;;;6.95;3.20;;;20.60;50.50;;;;;;4128087;28;20042;-57
2021/08/22 03:40:19;;;;;;;6.45;3.20;;;20.60;49.90;;;;;;4131921;28;20164;-56
2021/08/22 03:42:21;;;;;;;6.38;3.65;;;20.70;49.50;;;;;;4131440;28;20101;-54
2021/08/22 03:44:23;;;;;;;6.03;3.53;;;20.80;49.60;;;;;;4133521;28;20038;-54
2021/08/22 03:46:25;;;;;;;8.60;3.28;;;20.80;49.30;;;;;;4128460;28;20022;-48
2021/08/22 03:48:28;;;;;;;5.85;2.85;;;20.90;49.10;;;;;;4136946;28;20037;-50
2021/08/22 03:50:30;;;;;;;5.25;3.10;;;21.00;49.30;;;;;;4138083;28;20050;-49
2021/08/22 03:52:32;;;;;;;4.82;3.08;;;21.00;49.40;;;;;;4130353;28;20116;-52
2021/08/22 03:54:34;;;;;;;6.07;3.40;;;21.10;49.50;;;;;;4128525;28;20396;-51
2021/08/22 03:56:36;;;;;;;4.30;2.92;;;21.20;49.60;;;;;;4133895;28;20131;-50
2021/08/22 03:58:38;;;;;;;7.22;3.30;;;21.20;49.40;;;;;;4127820;28;20027;-51
2021/08/22 04:00:40;;;;;;;4.72;3.13;;;21.30;49.40;;;;;;4127478;28;20101;-53
2021/08/22 04:02:43;;;;;;;6.67;3.50;;;21.30;49.20;;;;;;4127056;28;20034;-50
2021/08/22 04:04:45;;;;;;;4.53;2.83;;;21.40;49.30;;;;;;4134156;28;20064;-56
2021/08/22 04:06:48;;;;;;;4.30;2.72;;;21.50;49.20;;;;;;4127991;28;20048;-56
2021/08/22 04:08:50;;;;;;;;;;;21.50;49.40;;;;;;4133369;28;20105;-52
2021/08/22 04:10:53;;;;;;;4.88;3.15;;;21.60;49.50;;;;;;4129712;28;19925;-55
2021/08/22 04:12:56;;;;;;;4.88;2.95;;;21.70;48.90;;;;;;4133127;28;20652;-54
2021/08/22 04:14:58;;;;;;;6.45;3.47;;;21.80;48.10;;;;;;4134804;28;20406;-51
2021/08/22 04:17:00;;;;;;;3.58;2.63;;;21.80;48.80;;;;;;4137648;28;20129;-58
2021/08/22 04:19:02;;;;;;;3.83;2.50;;;21.90;47.70;;;;;;4128974;28;20023;-54
2021/08/22 04:21:05;;;;;;;4.07;2.58;;;21.90;47.50;;;;;;4137247;28;20433;-55
2021/08/22 04:23:07;;;;;;;;;;;22.00;47.20;;;;;;4131634;28;20767;-55
2021/08/22 04:25:12;;;;;;;4.03;2.55;;;22.10;47.00;;;;;;4139814;28;19917;-54
2021/08/22 04:27:14;;;;;;;3.92;2.75;;;22.10;47.00;;;;;;4131804;28;20049;-57
2021/08/22 04:29:16;;;;;;;4.20;2.72;;;22.20;47.40;;;;;;4135249;28;20520;-57
2021/08/22 04:31:18;;;;;;;3.95;3.22;;;22.30;46.60;;;;;;4134665;28;20117;-52
2021/08/22 04:33:21;;;;;;;4.82;3.72;;;22.30;46.70;;;;;;4132926;28;20037;-55
2021/08/22 04:35:23;;;;;;;7.23;4.77;;;22.40;46.50;;;;;;4136311;28;20025;-58
2021/08/22 04:37:25;;;;;;;5.20;4.55;;;22.50;46.30;;;;;;4131954;28;20084;-56
2021/08/22 04:39:27;;;;;;;6.10;4.38;;;22.50;46.30;;;;;;4129799;28;20777;-55
2021/08/22 04:41:29;;;;;;;5.72;5.13;;;22.60;46.60;;;;;;4131059;28;20499;-52
2021/08/22 04:43:31;;;;;;;6.82;5.60;;;22.60;46.30;;;;;;4130596;28;20042;-52
2021/08/22 04:45:34;;;;;;;6.70;6.03;;;22.70;46.30;;;;;;4133077;28;20856;-55
2021/08/22 04:47:36;;;;;;;7.87;6.47;;;22.80;46.60;;;;;;4133981;28;20025;-51
2021/08/22 04:49:38;;;;;;;7.60;6.80;;;22.90;46.50;;;;;;4131667;28;20267;-55
2021/08/22 04:51:40;;;;;;;7.10;6.40;;;22.90;46.40;;;;;;4134347;28;20060;-54
2021/08/22 04:53:42;;;;;;;7.53;6.72;;;23.00;46.60;;;;;;4131285;28;20068;-52
2021/08/22 04:55:44;;;;;;;7.25;6.53;;;23.10;46.60;;;;;;4131606;28;20574;-56
2021/08/22 04:57:46;;;;;;;7.88;7.18;;;23.10;46.40;;;;;;4131330;28;20033;-50
2021/08/22 04:59:49;;;;;;;8.40;7.35;;;23.20;46.70;;;;;;4128210;28;20046;-55
2021/08/22 05:01:51;;;;;;;8.32;7.40;;;;;;;;;;4135706;28;20051;-56
2021/08/22 05:03:53;;;;;;;8.53;7.23;;;;;;;;;;4128100;28;20534;-62
2021/08/22 05:05:55;;;;;;;8.95;7.90;;;;;;;;;;4118930;28;20026;-59
2021/08/22 05:07:57;;;;;;;8.50;7.60;;;23.30;46.60;;;;;;4132673;28;20022;-58
2021/08/22 05:10:00;;;;;;;9.27;6.97;;;23.50;47.10;;;;;;4128585;28;20477;-59
2021/08/22 05:12:02;;;;;;;9.15;7.05;;;;;;;;;;4135725;28;20127;-59
2021/08/22 05:14:03;;;;;;;8.85;7.15;;;;;;;;;;4131140;28;20187;-59
2021/08/22 05:16:06;;;;;;;7.97;7.15;;;;;;;;;;4130927;28;20034;-57
2021/08/22 05:18:08;;;;;;;8.23;7.23;;;;;;;;;;4133880;28;20045;-61
2021/08/22 05:20:11;;;;;;;7.53;6.80;;;23.50;47.40;;;;;;4126292;28;20299;-58
2021/08/22 05:22:13;;;;;;;8.70;7.03;;;23.80;48.90;;;;;;4125900;28;20033;-63
2021/08/22 05:24:15;;;;;;;11.10;7.25;;;23.90;48.60;;;;;;4131657;28;20091;-62
2021/08/22 05:26:17;;;;;;;8.15;7.05;;;23.90;48.60;;;;;;4134938;28;20376;-61
2021/08/22 05:28:19;;;;;;;9.23;7.32;;;24.00;49.00;;;;;;4133931;28;20030;-62
2021/08/22 05:30:21;;;;;;;8.02;7.22;;;24.00;49.60;;;;;;4134607;28;20339;-58
2021/08/22 05:32:23;;;;;;;11.00;7.40;;;24.00;49.10;;;;;;4131740;28;20037;-54
2021/08/22 05:34:25;;;;;;;11.18;7.00;;;24.10;49.30;;;;;;4135400;28;20088;-59
2021/08/22 05:36:27;;;;;;;8.43;7.13;;;24.10;49.40;;;;;;4133436;28;20105;-58
2021/08/22 05:38:29;;;;;;;9.40;8.50;;;24.20;49.40;;;;;;4134595;28;20022;-59
2021/08/22 05:40:31;;;;;;;9.57;8.45;;;24.20;49.50;;;;;;4135280;28;20045;-62
2021/08/22 05:42:34;;;;;;;10.68;9.00;;;24.20;49.60;;;;;;4134549;28;20036;-60
2021/08/22 05:44:36;;;;;;;11.50;9.77;;;24.20;49.70;;;;;;4136209;28;20944;-60
2021/08/22 05:46:38;;;;;;;12.13;9.90;;;24.20;49.80;;;;;;4134613;28;20026;-61
2021/08/22 05:48:40;;;;;;;13.23;11.57;;;24.20;49.70;;;;;;4133038;28;20084;-60
2021/08/22 05:50:42;;;;;;;13.82;11.23;;;24.20;49.80;;;;;;4130438;28;20087;-62
2021/08/22 05:52:44;;;;;;;12.65;11.35;;;24.20;50.20;;;;;;4129661;28;20041;-59
2021/08/22 05:54:46;;;;;;;13.05;11.30;;;24.20;49.80;;;;;;4133742;28;20287;-60
2021/08/22 05:56:48;;;;;;;13.25;11.43;;;24.30;50.00;;;;;;4133061;28;20037;-59
2021/08/22 05:58:51;;;;;;;13.10;11.80;;;24.20;50.00;;;;;;4127551;28;20112;-57
2021/08/22 06:00:53;;;;;;;14.18;11.40;;;24.30;50.30;;;;;;4130458;28;20275;-61
2021/08/22 06:02:55;;;;;;;13.27;11.88;;;24.30;50.40;;;;;;4132946;28;20040;-58
2021/08/22 06:04:57;;;;;;;17.17;11.73;;;24.30;51.20;;;;;;4120462;28;20056;-61
2021/08/22 06:06:59;;;;;;;14.65;13.07;;;24.30;50.60;;;;;;4134237;28;20029;-60
2021/08/22 06:09:01;;;;;;;18.20;16.30;;;24.30;50.50;;;;;;4135661;28;20040;-60
2021/08/22 06:11:04;;;;;;;19.00;16.27;;;24.30;50.80;;;;;;4133468;28;20492;-60
2021/08/22 06:13:06;;;;;;;17.98;16.30;;;24.30;50.80;;;;;;4137527;28;20375;-58
2021/08/22 06:15:09;;;;;;;17.52;15.77;;;24.30;50.80;;;;;;4137343;28;20038;-60
2021/08/22 06:17:11;;;;;;;17.88;16.13;;;24.30;50.90;;;;;;4138546;28;20118;-60
2021/08/22 06:19:13;;;;;;;18.27;16.48;;;24.30;51.00;;;;;;4134760;28;20068;-60
2021/08/22 06:21:15;;;;;;;17.48;15.75;;;24.40;51.40;;;;;;4137965;28;20415;-61
2021/08/22 06:23:17;;;;;;;19.30;15.68;;;24.30;51.30;;;;;;4135084;28;20095;-60
2021/08/22 06:25:19;;;;;;;15.73;13.95;;;24.40;51.40;;;;;;4139258;28;20465;-60
2021/08/22 06:27:21;;;;;;;16.98;15.27;;;24.40;51.50;;;;;;4137641;28;20045;-60
2021/08/22 06:29:24;;;;;;;16.23;14.57;;;24.40;51.40;;;;;;4136272;28;20172;-62
2021/08/22 06:31:26;;;;;;;16.80;15.25;;;24.40;51.40;;;;;;4138532;28;20022;-61
2021/08/22 06:33:28;;;;;;;16.20;14.70;;;24.40;51.70;;;;;;4133567;28;20108;-62
2021/08/22 06:35:30;;;;;;;16.17;14.57;;;24.40;51.70;;;;;;4139038;28;20026;-61
2021/08/22 06:37:32;;;;;;;15.73;14.25;;;24.40;51.70;;;;;;4132913;28;20620;-52
2021/08/22 06:39:39;;;;;;;15.55;13.95;;;24.40;51.70;;;;;;4135060;28;20046;-59
2021/08/22 06:41:41;;;;;;;16.13;14.43;;;24.40;51.90;;;;;;4138292;28;20368;-58
2021/08/22 06:43:43;;;;;;;17.60;14.50;;;24.40;51.90;;;;;;4125910;28;20038;-58
2021/08/22 06:45:45;;;;;;;15.70;14.02;;;24.40;51.80;;;;;;4134151;28;20580;-53
2021/08/22 06:47:53;;;;;;;17.00;14.00;;;24.40;51.40;;;;;;4132340;28;20034;-50
2021/08/22 06:49:55;;;;;;;19.35;13.88;;;24.40;50.50;;;;;;4135790;28;20053;-53
2021/08/22 06:51:57;;;;;;;15.82;14.43;;;24.40;50.00;;;;;;4131615;28;20125;-51
2021/08/22 06:53:59;;;;;;;16.67;15.13;;;24.40;49.00;;;;;;4123839;28;20088;-51
2021/08/22 06:56:01;;;;;;;15.43;13.93;;;24.40;48.60;;;;;;4125997;28;20033;-50
2021/08/22 06:58:03;;;;;;;16.40;14.70;;;24.30;48.70;;;;;;4127882;28;20341;-52
2021/08/22 07:00:06;;;;;;;16.33;14.60;;;24.30;48.80;;;;;;4125094;28;20042;-51
2021/08/22 07:02:10;;;;;;;16.08;14.48;;;24.30;48.90;;;;;;4127303;28;20030;-52
2021/08/22 07:04:12;;;;;;;14.45;13.20;;;24.20;48.70;;;;;;4123948;28;20065;-53
2021/08/22 07:06:15;;;;;;;15.65;14.07;;;24.20;48.80;;;;;;4129735;28;20768;-48
2021/08/22 07:08:18;;;;;;;14.00;12.70;;;24.20;48.90;;;;;;4132515;28;20487;-49
2021/08/22 07:10:20;;;;;;;14.17;12.97;;;24.10;48.70;;;;;;4137448;28;20397;-54
2021/08/22 07:12:25;;;;;;;14.27;12.98;;;24.10;48.70;;;;;;4134264;28;20467;-55
2021/08/22 07:14:27;;;;;;;15.07;13.57;;;24.00;48.70;;;;;;4137463;28;20404;-53
2021/08/22 07:16:29;;;;;;;13.82;12.52;;;24.00;48.70;;;;;;4113999;28;20572;-55
2021/08/22 07:18:32;;;;;;;16.00;14.35;;;24.00;48.70;;;;;;4134217;28;20026;-50
2021/08/22 07:20:35;;;;;;;14.35;13.00;;;24.00;48.60;;;;;;4133165;28;20044;-53
2021/08/22 07:22:37;;;;;;;15.32;13.82;;;24.00;48.60;;;;;;4135263;28;20427;-53
2021/08/22 07:24:39;;;;;;;15.05;13.55;;;24.00;48.40;;;;;;4134226;28;20539;-54
2021/08/22 07:26:41;;;;;;;16.27;13.30;;;24.00;48.70;;;;;;4139037;28;20034;-46
2021/08/22 07:28:43;;;;;;;15.40;13.90;;;23.90;48.70;;;;;;4130719;28;20068;-46
2021/08/22 07:30:45;;;;;;;15.32;13.93;;;23.90;48.70;;;;;;4137593;28;20269;-50
2021/08/22 07:32:47;;;;;;;14.65;13.32;;;23.90;48.70;;;;;;4138322;28;20021;-50
2021/08/22 07:34:49;;;;;;;14.35;13.07;;;23.90;48.60;;;;;;4128376;28;20021;-50
2021/08/22 07:36:51;;;;;;;14.38;12.95;;;23.90;49.00;;;;;;4134305;28;20030;-54
2021/08/22 07:38:53;;;;;;;14.30;13.00;;;23.80;49.00;;;;;;4135791;28;20022;-51
2021/08/22 07:40:56;;;;;;;14.20;12.50;;;23.90;50.00;;;;;;4135351;28;20463;-52
2021/08/22 07:42:58;;;;;;;14.77;13.20;;;23.90;50.30;;;;;;4135119;28;20572;-51
2021/08/22 07:45:01;;;;;;;13.35;12.02;;;23.90;50.60;;;;;;4135052;28;20061;-58
2021/08/22 07:47:03;;;;;;;12.90;11.70;;;24.00;50.60;;;;;;4135158;28;20018;-56
2021/08/22 07:49:05;;;;;;;15.02;12.43;;;24.00;50.40;;;;;;4131715;28;20518;-58
2021/08/22 07:51:07;;;;;;;12.88;11.60;;;24.00;50.30;;;;;;4133052;28;20096;-55
2021/08/22 07:53:09;;;;;;;17.65;12.15;;;24.00;50.30;;;;;;4136639;28;20045;-57
2021/08/22 07:55:11;;;;;;;12.60;11.50;;;23.90;50.20;;;;;;4136166;28;20475;-58
2021/08/22 07:57:14;;;;;;;12.40;11.30;;;23.90;50.20;;;;;;4136558;28;20065;-58
2021/08/22 07:59:16;;;;;;;12.15;11.02;;;23.90;50.20;;;;;;4135520;28;20442;-58
2021/08/22 08:01:18;;;;;;;12.63;11.50;;;23.90;50.20;;;;;;4134176;28;20450;-58
2021/08/22 08:03:20;;;;;;;11.30;10.10;;;23.90;50.30;;;;;;4129130;28;20533;-57
2021/08/22 08:05:22;;;;;;;11.60;10.40;;;23.90;50.20;;;;;;4131155;28;20067;-57
2021/08/22 08:07:24;;;;;;;11.18;10.07;;;23.90;50.20;;;;;;4126672;28;20261;-59
2021/08/22 08:09:26;;;;;;;10.88;9.88;;;23.90;50.10;;;;;;4131434;28;20111;-58
2021/08/22 08:11:29;;;;;;;10.55;9.55;;;23.90;50.10;;;;;;4126767;28;20113;-58
2021/08/22 08:13:31;;;;;;;;;;;23.90;50.00;;;;;;4130871;28;20038;-57
2021/08/22 08:15:33;;;;;;;9.48;8.13;;;23.90;50.00;;;;;;4122925;28;19947;-61
2021/08/22 08:17:35;;;;;;;12.15;8.57;;;23.90;50.20;;;;;;4132914;28;20058;-62
2021/08/22 08:19:37;;;;;;;10.18;8.52;;;23.90;50.50;;;;;;4135669;28;20084;-59
2021/08/22 08:21:39;;;;;;;10.18;8.63;;;23.90;50.80;;;;;;4131651;28;20026;-59
2021/08/22 08:23:41;;;;;;;9.00;8.10;;;23.90;51.10;;;;;;4130930;28;20030;-50
2021/08/22 08:25:43;;;;;;;10.65;8.68;;;24.00;51.30;;;;;;4132840;28;20422;-52
2021/08/22 08:27:47;;;;;;;9.23;8.43;;;24.00;51.30;;;;;;4131758;28;20030;-52
2021/08/22 08:29:51;;;;;;;8.25;7.45;;;23.90;51.40;;;;;;4126028;28;20073;-57
2021/08/22 08:31:53;;;;;;;9.57;7.60;;;24.00;51.70;;;;;;4131094;28;20034;-55
2021/08/22 08:33:55;;;;;;;10.23;8.30;;;24.00;51.70;;;;;;4134280;28;20044;-58
2021/08/22 08:35:57;;;;;;;10.93;7.15;;;24.00;51.70;;;;;;4132717;28;20052;-57
2021/08/22 08:38:00;;;;;;;10.23;7.22;;;24.00;52.00;;;;;;4134780;28;20022;-57
2021/08/22 08:40:02;;;;;;;9.02;7.32;;;23.90;51.80;;;;;;4134108;28;20038;-58
2021/08/22 08:42:23;;;;;;;8.82;6.95;;;24.00;52.00;;;;;;4135540;28;20263;-55
2021/08/22 08:44:25;;;;;;;8.45;7.22;;;24.00;52.20;;;;;;4115998;28;20121;-58
2021/08/22 08:46:50;;;;;;;8.55;7.43;;;24.00;52.70;;;;;;4135044;28;20117;-57
2021/08/22 08:49:13;;;;;;;10.32;7.13;;;23.90;52.70;;;;;;4130447;28;20034;-56
2021/08/22 08:51:35;;;;;;;8.43;6.20;;;23.90;52.90;;;;;;4126419;28;20522;-60
2021/08/22 08:54:05;;;;;;;10.82;6.43;;;23.90;52.90;;;;;;4129574;28;20487;-61
2021/08/22 08:56:12;;;;;;;14.55;7.00;;;23.90;53.60;;;;;;4126964;28;20033;-57
2021/08/22 08:58:15;;;;;;;8.02;7.18;;;23.90;53.10;;;;;;4128510;28;20523;-58
2021/08/22 09:00:23;;;;;;;6.70;5.93;;;23.90;53.10;;;;;;4129811;28;20360;-55
2021/08/22 09:02:25;;;;;;;6.80;6.13;;;23.90;53.20;;;;;;4129031;28;20562;-57
2021/08/22 09:04:27;;;;;;;7.55;6.60;;;23.90;53.30;;;;;;4121045;28;20830;-58
2021/08/22 09:06:50;;;;;;;9.52;6.22;;;23.90;53.50;;;;;;4125393;28;20115;-51
2021/08/22 09:09:22;;;;;;;9.13;5.97;;;23.90;53.70;;;;;;4132284;28;20140;-52
2021/08/22 09:11:46;;;;;;;7.55;6.43;;;23.90;53.90;;;;;;4132951;28;20057;-54
2021/08/22 09:14:15;;;;;;;8.35;6.70;;;23.90;54.00;;;;;;4132236;28;20018;-54
2021/08/22 09:16:51;;;;;;;9.48;6.20;;;23.90;54.10;;;;;;4133809;28;20088;-56
2021/08/22 09:19:02;;;;;;;7.00;6.30;;;23.90;54.10;;;;;;4131081;28;20036;-54
2021/08/22 09:21:22;;;;;;;8.65;6.07;;;23.90;54.20;;;;;;4130635;28;20117;-53
2021/08/22 09:24:01;;;;;;;8.43;6.55;;;23.90;54.20;;;;;;4132445;28;20065;-55
2021/08/22 09:26:34;;;;;;;8.25;5.90;;;23.90;54.20;;;;;;4131281;28;20018;-58
2021/08/22 09:29:12;;;;;;;7.32;6.00;;;23.90;54.20;;;;;;4132826;28;20421;-58
2021/08/22 09:31:51;;;;;;;12.15;6.35;;;23.90;54.20;;;;;;4134556;28;20034;-59
2021/08/22 09:34:30;;;;;;;9.05;5.85;;;23.90;54.40;;;;;;4135022;28;20053;-58
2021/08/22 09:36:32;;;;;;;6.90;5.70;;;23.90;54.40;;;;;;4132387;28;20038;-59
2021/08/22 09:39:08;;;;;;;6.50;5.82;;;23.90;54.50;;;;;;4131297;28;20476;-57
2021/08/22 09:41:47;;;;;;;7.18;6.05;;;23.90;54.40;;;;;;4135000;28;20038;-58
2021/08/22 09:44:26;;;;;;;7.93;6.35;;;23.90;54.40;;;;;;4134520;28;20426;-60
2021/08/22 09:46:46;;;;;;;8.73;6.65;;;23.80;54.40;;;;;;4134912;28;20038;-60
2021/08/22 09:49:16;;;;;;;8.57;6.40;;;23.90;54.60;;;;;;4136866;28;20136;-59
2021/08/22 09:51:36;;;;;;;7.20;6.35;;;23.80;54.50;;;;;;4135604;28;20316;-59
2021/08/22 09:54:15;;;;;;;9.50;6.30;;;23.80;54.60;;;;;;4137311;28;20523;-58
2021/08/22 09:56:41;;;;;;;6.80;5.80;;;23.80;54.70;;;;;;4133098;28;21038;-59
2021/08/22 09:58:55;;;;;;;6.70;5.90;;;23.80;54.60;;;;;;4132551;28;20025;-61
2021/08/22 10:01:15;;;;;;;8.45;6.60;;;23.80;54.70;;;;;;4135714;28;20109;-60
2021/08/22 10:03:17;;;;;;;8.27;6.22;;;23.80;54.80;;;;;;4136935;28;20139;-60
2021/08/22 10:05:57;;;;;;;7.97;6.32;;;23.80;54.90;;;;;;4137442;28;20029;-59
2021/08/22 10:08:17;;;;;;;8.27;6.30;;;23.80;54.70;;;;;;4134252;28;20049;-60
2021/08/22 10:10:37;;;;;;;6.93;6.22;;;23.80;54.70;;;;;;4136045;28;21191;-59
2021/08/22 10:12:39;;;;;;;7.50;6.60;;;23.80;54.80;;;;;;4125613;28;20026;-60
2021/08/22 10:14:42;;;;;;;8.45;6.60;;;23.70;54.70;;;;;;4137351;28;20041;-61
2021/08/22 10:16:49;;;;;;;9.05;7.00;;;23.70;54.70;;;;;;4131844;28;20974;-61
2021/08/22 10:18:51;;;;;;;7.72;6.93;;;23.70;54.80;;;;;;4137253;28;20547;-61
2021/08/22 10:21:02;;;;;;;9.35;6.88;;;23.70;54.80;;;;;;4134114;28;20045;-60
2021/08/22 10:23:04;;;;;;;8.95;6.65;;;23.70;54.90;;;;;;4131138;28;20167;-62
2021/08/22 10:25:12;;;;;;;8.90;7.20;;;23.70;54.80;;;;;;4129349;28;20034;-59
2021/08/22 10:27:41;;;;;;;8.18;6.50;;;23.70;54.90;;;;;;4134615;28;20040;-59
2021/08/22 10:29:50;;;;;;;8.95;7.00;;;23.70;54.90;;;;;;4124997;28;20034;-61
2021/08/22 10:31:55;;;;;;;8.73;7.22;;;23.70;55.10;;;;;;4119818;28;20036;-62
2021/08/22 10:34:21;;;;;;;10.15;7.10;;;23.70;55.30;;;;;;4135892;28;20092;-59
2021/08/22 10:36:30;;;;;;;8.27;6.35;;;23.70;55.30;;;;;;4126156;28;20048;-59
2021/08/22 10:38:32;;;;;;;7.97;6.68;;;23.70;55.40;;;;;;4134071;28;20037;-57
2021/08/22 10:40:35;;;;;;;9.38;6.75;;;23.70;55.50;;;;;;4136835;28;20033;-59
2021/08/22 10:42:37;;;;;;;8.70;6.60;;;23.70;55.40;;;;;;4132730;28;20462;-59
2021/08/22 10:44:43;;;;;;;16.23;6.80;;;23.70;55.40;;;;;;4136339;28;20056;-60
2021/08/22 10:46:48;;;;;;;14.15;7.03;;;23.60;55.40;;;;;;4130604;28;20094;-60
2021/08/22 10:48:51;;;;;;;8.55;6.32;;;23.60;55.50;;;;;;4124245;28;20034;-58
2021/08/22 10:50:59;;;;;;;10.90;6.45;;;23.70;55.40;;;;;;4135035;28;20036;-56